sensor_id;sensor_type;location;lat;lon;timestamp;P1;durP1;ratioP1;P2;durP2;ratioP2
10216;SDS011;5152;59.674;16.838;2022-11-15T00:00:04;0.80;;;0.80;;
10216;SDS011;5152;59.674;16.838;2022-11-15T00:02:32;1.47;;;0.63;;
10216;SDS011;5152;59.674;16.838;2022-11-15T00:04:58;0.53;;;0.53;;
10216;SDS011;5152;59.674;16.838;2022-11-15T00:07:25;0.63;;;0.63;;
10216;SDS011;5152;59.674;16.838;2022-11-15T00:09:52;1.03;;;0.63;;
10216;SDS011;5152;59.674;16.838;2022-11-15T00:12:20;0.70;;;0.57;;
10216;SDS011;5152;59.674;16.838;2022-11-15T00:14:46;1.00;;;0.90;;
10216;SDS011;5152;59.674;16.838;2022-11-15T00:17:13;2.20;;;0.53;;
10216;SDS011;5152;59.674;16.838;2022-11-15T00:19:40;1.40;;;0.57;;
10216;SDS011;5152;59.674;16.838;2022-11-15T00:22:07;0.70;;;0.70;;
10216;SDS011;5152;59.674;16.838;2022-11-15T00:24:33;0.70;;;0.70;;
10216;SDS011;5152;59.674;16.838;2022-11-15T00:27:00;0.60;;;0.60;;
10216;SDS011;5152;59.674;16.838;2022-11-15T00:29:28;0.70;;;0.70;;
10216;SDS011;5152;59.674;16.838;2022-11-15T00:31:55;0.50;;;0.50;;
10216;SDS011;5152;59.674;16.838;2022-11-15T00:34:21;0.70;;;0.70;;
10216;SDS011;5152;59.674;16.838;2022-11-15T00:36:48;0.50;;;0.50;;
10216;SDS011;5152;59.674;16.838;2022-11-15T00:39:15;1.53;;;0.80;;
10216;SDS011;5152;59.674;16.838;2022-11-15T00:41:41;0.57;;;0.40;;
10216;SDS011;5152;59.674;16.838;2022-11-15T00:44:08;1.03;;;0.70;;
10216;SDS011;5152;59.674;16.838;2022-11-15T00:46:36;0.67;;;0.67;;
10216;SDS011;5152;59.674;16.838;2022-11-15T00:49:03;0.60;;;0.60;;
10216;SDS011;5152;59.674;16.838;2022-11-15T00:51:29;0.40;;;0.40;;
10216;SDS011;5152;59.674;16.838;2022-11-15T00:53:56;1.57;;;0.90;;
10216;SDS011;5152;59.674;16.838;2022-11-15T00:56:23;1.23;;;0.83;;
10216;SDS011;5152;59.674;16.838;2022-11-15T00:58:49;0.70;;;0.70;;
10216;SDS011;5152;59.674;16.838;2022-11-15T01:01:16;1.00;;;0.90;;
10216;SDS011;5152;59.674;16.838;2022-11-15T01:03:44;2.60;;;1.10;;
10216;SDS011;5152;59.674;16.838;2022-11-15T01:06:11;0.93;;;0.90;;
10216;SDS011;5152;59.674;16.838;2022-11-15T01:08:38;0.47;;;0.47;;
10216;SDS011;5152;59.674;16.838;2022-11-15T01:11:05;1.33;;;1.07;;
10216;SDS011;5152;59.674;16.838;2022-11-15T01:13:34;1.37;;;1.00;;
10216;SDS011;5152;59.674;16.838;2022-11-15T01:16:05;0.53;;;0.53;;
10216;SDS011;5152;59.674;16.838;2022-11-15T01:18:32;0.67;;;0.67;;
10216;SDS011;5152;59.674;16.838;2022-11-15T01:21:00;0.70;;;0.70;;
10216;SDS011;5152;59.674;16.838;2022-11-15T01:23:31;0.80;;;0.80;;
10216;SDS011;5152;59.674;16.838;2022-11-15T01:25:58;1.30;;;1.20;;
10216;SDS011;5152;59.674;16.838;2022-11-15T01:28:25;1.47;;;0.63;;
10216;SDS011;5152;59.674;16.838;2022-11-15T01:30:52;1.00;;;0.90;;
10216;SDS011;5152;59.674;16.838;2022-11-15T01:33:19;1.30;;;1.20;;
10216;SDS011;5152;59.674;16.838;2022-11-15T01:35:46;1.13;;;1.00;;
10216;SDS011;5152;59.674;16.838;2022-11-15T01:38:14;0.60;;;0.60;;
10216;SDS011;5152;59.674;16.838;2022-11-15T01:40:40;1.40;;;1.30;;
10216;SDS011;5152;59.674;16.838;2022-11-15T01:43:20;1.10;;;1.00;;
10216;SDS011;5152;59.674;16.838;2022-11-15T01:45:49;1.30;;;1.20;;
10216;SDS011;5152;59.674;16.838;2022-11-15T01:48:18;2.20;;;1.20;;
10216;SDS011;5152;59.674;16.838;2022-11-15T01:50:45;3.07;;;1.53;;
10216;SDS011;5152;59.674;16.838;2022-11-15T01:53:13;1.13;;;1.07;;
10216;SDS011;5152;59.674;16.838;2022-11-15T01:55:40;2.00;;;1.33;;
10216;SDS011;5152;59.674;16.838;2022-11-15T01:58:07;6.20;;;3.60;;
10216;SDS011;5152;59.674;16.838;2022-11-15T02:00:34;1.13;;;1.03;;
10216;SDS011;5152;59.674;16.838;2022-11-15T02:03:01;2.73;;;1.80;;
10216;SDS011;5152;59.674;16.838;2022-11-15T02:05:28;1.10;;;0.90;;
10216;SDS011;5152;59.674;16.838;2022-11-15T02:07:56;1.80;;;1.40;;
10216;SDS011;5152;59.674;16.838;2022-11-15T02:10:24;1.60;;;1.37;;
10216;SDS011;5152;59.674;16.838;2022-11-15T02:12:51;1.90;;;1.17;;
10216;SDS011;5152;59.674;16.838;2022-11-15T02:15:18;3.77;;;2.73;;
10216;SDS011;5152;59.674;16.838;2022-11-15T02:20:50;1.77;;;1.50;;
10216;SDS011;5152;59.674;16.838;2022-11-15T02:23:41;4.93;;;2.90;;
10216;SDS011;5152;59.674;16.838;2022-11-15T02:26:30;1.97;;;1.47;;
10216;SDS011;5152;59.674;16.838;2022-11-15T02:29:19;2.50;;;2.30;;
10216;SDS011;5152;59.674;16.838;2022-11-15T02:31:57;3.47;;;2.40;;
10216;SDS011;5152;59.674;16.838;2022-11-15T02:34:28;4.00;;;2.00;;
10216;SDS011;5152;59.674;16.838;2022-11-15T02:37:01;3.57;;;2.43;;
10216;SDS011;5152;59.674;16.838;2022-11-15T02:39:32;3.10;;;1.80;;
10216;SDS011;5152;59.674;16.838;2022-11-15T02:42:02;1.17;;;1.07;;
10216;SDS011;5152;59.674;16.838;2022-11-15T02:44:51;1.60;;;1.30;;
10216;SDS011;5152;59.674;16.838;2022-11-15T02:47:19;1.73;;;1.63;;
10216;SDS011;5152;59.674;16.838;2022-11-15T02:49:47;1.67;;;1.57;;
10216;SDS011;5152;59.674;16.838;2022-11-15T02:52:15;1.70;;;1.60;;
10216;SDS011;5152;59.674;16.838;2022-11-15T02:54:43;1.90;;;1.70;;
10216;SDS011;5152;59.674;16.838;2022-11-15T02:57:18;1.20;;;1.10;;
10216;SDS011;5152;59.674;16.838;2022-11-15T02:59:55;1.73;;;1.63;;
10216;SDS011;5152;59.674;16.838;2022-11-15T03:02:36;2.00;;;1.73;;
10216;SDS011;5152;59.674;16.838;2022-11-15T03:05:10;2.77;;;1.43;;
10216;SDS011;5152;59.674;16.838;2022-11-15T03:07:43;14.80;;;9.03;;
10216;SDS011;5152;59.674;16.838;2022-11-15T03:10:14;3.80;;;2.70;;
10216;SDS011;5152;59.674;16.838;2022-11-15T03:12:45;3.30;;;3.00;;
10216;SDS011;5152;59.674;16.838;2022-11-15T03:15:16;3.40;;;2.67;;
10216;SDS011;5152;59.674;16.838;2022-11-15T03:17:47;1.17;;;1.13;;
10216;SDS011;5152;59.674;16.838;2022-11-15T03:20:17;2.40;;;2.20;;
10216;SDS011;5152;59.674;16.838;2022-11-15T03:22:44;2.17;;;1.97;;
10216;SDS011;5152;59.674;16.838;2022-11-15T03:25:14;2.83;;;2.53;;
10216;SDS011;5152;59.674;16.838;2022-11-15T03:27:44;2.40;;;2.20;;
10216;SDS011;5152;59.674;16.838;2022-11-15T03:30:13;1.70;;;1.60;;
10216;SDS011;5152;59.674;16.838;2022-11-15T03:32:42;2.63;;;2.43;;
10216;SDS011;5152;59.674;16.838;2022-11-15T03:35:13;5.37;;;1.47;;
10216;SDS011;5152;59.674;16.838;2022-11-15T03:37:43;2.23;;;2.03;;
10216;SDS011;5152;59.674;16.838;2022-11-15T03:40:12;2.03;;;1.53;;
10216;SDS011;5152;59.674;16.838;2022-11-15T03:42:40;2.37;;;2.07;;
10216;SDS011;5152;59.674;16.838;2022-11-15T03:45:12;3.33;;;2.83;;
10216;SDS011;5152;59.674;16.838;2022-11-15T03:47:41;4.20;;;3.57;;
10216;SDS011;5152;59.674;16.838;2022-11-15T03:50:10;4.87;;;3.90;;
10216;SDS011;5152;59.674;16.838;2022-11-15T03:52:41;2.43;;;1.80;;
10216;SDS011;5152;59.674;16.838;2022-11-15T03:55:10;2.53;;;2.33;;
10216;SDS011;5152;59.674;16.838;2022-11-15T03:57:39;3.07;;;2.77;;
10216;SDS011;5152;59.674;16.838;2022-11-15T04:00:06;5.43;;;4.83;;
10216;SDS011;5152;59.674;16.838;2022-11-15T04:02:34;4.07;;;2.83;;
10216;SDS011;5152;59.674;16.838;2022-11-15T04:05:01;6.50;;;2.67;;
10216;SDS011;5152;59.674;16.838;2022-11-15T04:07:29;4.77;;;2.90;;
10216;SDS011;5152;59.674;16.838;2022-11-15T04:09:55;6.03;;;5.17;;
10216;SDS011;5152;59.674;16.838;2022-11-15T04:12:28;4.03;;;2.80;;
10216;SDS011;5152;59.674;16.838;2022-11-15T04:14:58;1.77;;;1.67;;
10216;SDS011;5152;59.674;16.838;2022-11-15T04:17:35;8.17;;;5.93;;
10216;SDS011;5152;59.674;16.838;2022-11-15T04:20:04;4.33;;;3.50;;
10216;SDS011;5152;59.674;16.838;2022-11-15T04:22:53;6.17;;;3.47;;
10216;SDS011;5152;59.674;16.838;2022-11-15T04:25:37;4.97;;;3.83;;
10216;SDS011;5152;59.674;16.838;2022-11-15T04:28:04;10.13;;;7.93;;
10216;SDS011;5152;59.674;16.838;2022-11-15T04:30:31;8.50;;;6.47;;
10216;SDS011;5152;59.674;16.838;2022-11-15T04:32:56;5.60;;;3.70;;
10216;SDS011;5152;59.674;16.838;2022-11-15T04:35:23;7.47;;;4.40;;
10216;SDS011;5152;59.674;16.838;2022-11-15T04:37:50;7.40;;;4.03;;
10216;SDS011;5152;59.674;16.838;2022-11-15T04:40:18;11.07;;;4.87;;
10216;SDS011;5152;59.674;16.838;2022-11-15T04:42:44;1.73;;;1.63;;
10216;SDS011;5152;59.674;16.838;2022-11-15T04:45:11;12.27;;;5.47;;
10216;SDS011;5152;59.674;16.838;2022-11-15T04:47:38;16.90;;;9.63;;
10216;SDS011;5152;59.674;16.838;2022-11-15T04:50:05;22.53;;;15.23;;
10216;SDS011;5152;59.674;16.838;2022-11-15T04:52:32;23.67;;;15.43;;
10216;SDS011;5152;59.674;16.838;2022-11-15T04:54:59;10.40;;;6.93;;
10216;SDS011;5152;59.674;16.838;2022-11-15T04:57:27;8.57;;;5.43;;
10216;SDS011;5152;59.674;16.838;2022-11-15T04:59:53;6.63;;;3.87;;
10216;SDS011;5152;59.674;16.838;2022-11-15T05:02:20;8.07;;;4.73;;
10216;SDS011;5152;59.674;16.838;2022-11-15T05:04:47;10.83;;;5.77;;
10216;SDS011;5152;59.674;16.838;2022-11-15T05:07:12;9.43;;;5.67;;
10216;SDS011;5152;59.674;16.838;2022-11-15T05:09:39;7.83;;;4.50;;
10216;SDS011;5152;59.674;16.838;2022-11-15T05:12:06;6.03;;;4.53;;
10216;SDS011;5152;59.674;16.838;2022-11-15T05:14:34;4.93;;;3.80;;
10216;SDS011;5152;59.674;16.838;2022-11-15T05:17:00;10.47;;;5.43;;
10216;SDS011;5152;59.674;16.838;2022-11-15T05:19:27;6.33;;;4.20;;
10216;SDS011;5152;59.674;16.838;2022-11-15T05:21:54;7.80;;;4.23;;
10216;SDS011;5152;59.674;16.838;2022-11-15T05:24:20;6.57;;;3.37;;
10216;SDS011;5152;59.674;16.838;2022-11-15T05:26:47;8.90;;;3.27;;
10216;SDS011;5152;59.674;16.838;2022-11-15T05:29:14;8.00;;;3.40;;
10216;SDS011;5152;59.674;16.838;2022-11-15T05:31:42;8.17;;;3.10;;
10216;SDS011;5152;59.674;16.838;2022-11-15T05:34:08;6.27;;;3.47;;
10216;SDS011;5152;59.674;16.838;2022-11-15T05:36:36;6.93;;;3.07;;
10216;SDS011;5152;59.674;16.838;2022-11-15T05:39:04;4.93;;;2.80;;
10216;SDS011;5152;59.674;16.838;2022-11-15T05:41:32;13.50;;;3.30;;
10216;SDS011;5152;59.674;16.838;2022-11-15T05:44:00;13.43;;;2.73;;
10216;SDS011;5152;59.674;16.838;2022-11-15T05:46:27;9.40;;;2.87;;
10216;SDS011;5152;59.674;16.838;2022-11-15T05:48:56;4.70;;;1.80;;
10216;SDS011;5152;59.674;16.838;2022-11-15T05:51:23;5.60;;;2.10;;
10216;SDS011;5152;59.674;16.838;2022-11-15T05:53:50;7.37;;;2.00;;
10216;SDS011;5152;59.674;16.838;2022-11-15T05:56:18;5.37;;;1.73;;
10216;SDS011;5152;59.674;16.838;2022-11-15T05:58:45;5.10;;;1.80;;
10216;SDS011;5152;59.674;16.838;2022-11-15T06:01:11;5.90;;;1.60;;
10216;SDS011;5152;59.674;16.838;2022-11-15T06:03:38;8.70;;;1.80;;
10216;SDS011;5152;59.674;16.838;2022-11-15T06:06:07;4.83;;;1.30;;
10216;SDS011;5152;59.674;16.838;2022-11-15T06:08:33;8.27;;;1.33;;
10216;SDS011;5152;59.674;16.838;2022-11-15T06:11:03;2.20;;;1.20;;
10216;SDS011;5152;59.674;16.838;2022-11-15T06:13:31;2.57;;;1.17;;
10216;SDS011;5152;59.674;16.838;2022-11-15T06:15:58;2.57;;;1.30;;
10216;SDS011;5152;59.674;16.838;2022-11-15T06:18:25;4.27;;;1.07;;
10216;SDS011;5152;59.674;16.838;2022-11-15T06:20:51;8.07;;;1.60;;
10216;SDS011;5152;59.674;16.838;2022-11-15T06:23:20;3.53;;;1.33;;
10216;SDS011;5152;59.674;16.838;2022-11-15T06:25:46;4.83;;;1.10;;
10216;SDS011;5152;59.674;16.838;2022-11-15T06:28:13;5.60;;;1.20;;
10216;SDS011;5152;59.674;16.838;2022-11-15T06:30:40;3.70;;;1.10;;
10216;SDS011;5152;59.674;16.838;2022-11-15T06:33:06;19.53;;;1.23;;
10216;SDS011;5152;59.674;16.838;2022-11-15T06:35:34;7.60;;;1.33;;
10216;SDS011;5152;59.674;16.838;2022-11-15T06:38:02;6.37;;;1.33;;
10216;SDS011;5152;59.674;16.838;2022-11-15T06:40:32;2.90;;;0.80;;
10216;SDS011;5152;59.674;16.838;2022-11-15T06:42:59;4.23;;;1.40;;
10216;SDS011;5152;59.674;16.838;2022-11-15T06:45:26;5.40;;;1.30;;
10216;SDS011;5152;59.674;16.838;2022-11-15T06:47:52;3.90;;;1.50;;
10216;SDS011;5152;59.674;16.838;2022-11-15T06:50:19;4.63;;;1.53;;
10216;SDS011;5152;59.674;16.838;2022-11-15T06:52:46;3.20;;;1.00;;
10216;SDS011;5152;59.674;16.838;2022-11-15T06:55:13;3.03;;;1.37;;
10216;SDS011;5152;59.674;16.838;2022-11-15T06:57:47;4.47;;;1.30;;
10216;SDS011;5152;59.674;16.838;2022-11-15T07:00:15;3.30;;;1.50;;
10216;SDS011;5152;59.674;16.838;2022-11-15T07:02:42;7.30;;;1.23;;
10216;SDS011;5152;59.674;16.838;2022-11-15T07:05:09;2.73;;;1.20;;
10216;SDS011;5152;59.674;16.838;2022-11-15T07:07:36;3.57;;;1.30;;
10216;SDS011;5152;59.674;16.838;2022-11-15T07:10:03;5.80;;;1.50;;
10216;SDS011;5152;59.674;16.838;2022-11-15T07:12:31;4.20;;;1.47;;
10216;SDS011;5152;59.674;16.838;2022-11-15T07:14:59;3.87;;;1.30;;
10216;SDS011;5152;59.674;16.838;2022-11-15T07:17:25;2.07;;;1.30;;
10216;SDS011;5152;59.674;16.838;2022-11-15T07:19:52;6.70;;;1.37;;
10216;SDS011;5152;59.674;16.838;2022-11-15T07:22:19;4.07;;;1.40;;
10216;SDS011;5152;59.674;16.838;2022-11-15T07:24:45;4.70;;;1.50;;
10216;SDS011;5152;59.674;16.838;2022-11-15T07:27:12;7.97;;;1.40;;
10216;SDS011;5152;59.674;16.838;2022-11-15T07:29:39;3.20;;;1.63;;
10216;SDS011;5152;59.674;16.838;2022-11-15T07:32:07;4.00;;;1.60;;
10216;SDS011;5152;59.674;16.838;2022-11-15T07:34:34;3.03;;;2.20;;
10216;SDS011;5152;59.674;16.838;2022-11-15T07:37:00;3.87;;;1.70;;
10216;SDS011;5152;59.674;16.838;2022-11-15T07:39:27;4.50;;;2.40;;
10216;SDS011;5152;59.674;16.838;2022-11-15T07:41:54;4.67;;;2.30;;
10216;SDS011;5152;59.674;16.838;2022-11-15T07:44:40;5.37;;;2.47;;
10216;SDS011;5152;59.674;16.838;2022-11-15T07:47:08;7.20;;;2.90;;
10216;SDS011;5152;59.674;16.838;2022-11-15T07:49:35;3.57;;;2.13;;
10216;SDS011;5152;59.674;16.838;2022-11-15T07:52:02;4.73;;;1.90;;
10216;SDS011;5152;59.674;16.838;2022-11-15T07:54:29;4.83;;;1.60;;
10216;SDS011;5152;59.674;16.838;2022-11-15T07:56:56;2.33;;;1.33;;
10216;SDS011;5152;59.674;16.838;2022-11-15T07:59:22;5.07;;;2.13;;
10216;SDS011;5152;59.674;16.838;2022-11-15T08:01:49;8.93;;;5.03;;
10216;SDS011;5152;59.674;16.838;2022-11-15T08:04:17;5.67;;;1.90;;
10216;SDS011;5152;59.674;16.838;2022-11-15T08:06:44;3.77;;;2.10;;
10216;SDS011;5152;59.674;16.838;2022-11-15T08:09:11;4.97;;;1.90;;
10216;SDS011;5152;59.674;16.838;2022-11-15T08:11:37;4.93;;;1.80;;
10216;SDS011;5152;59.674;16.838;2022-11-15T08:14:04;4.93;;;2.00;;
10216;SDS011;5152;59.674;16.838;2022-11-15T08:16:31;7.00;;;3.03;;
10216;SDS011;5152;59.674;16.838;2022-11-15T08:18:57;5.57;;;2.33;;
10216;SDS011;5152;59.674;16.838;2022-11-15T08:21:26;7.03;;;3.60;;
10216;SDS011;5152;59.674;16.838;2022-11-15T08:23:53;2.97;;;2.20;;
10216;SDS011;5152;59.674;16.838;2022-11-15T08:26:19;6.87;;;3.23;;
10216;SDS011;5152;59.674;16.838;2022-11-15T08:28:46;4.37;;;1.83;;
10216;SDS011;5152;59.674;16.838;2022-11-15T08:31:13;4.27;;;2.60;;
10216;SDS011;5152;59.674;16.838;2022-11-15T08:33:41;4.27;;;2.77;;
10216;SDS011;5152;59.674;16.838;2022-11-15T08:36:10;7.03;;;5.13;;
10216;SDS011;5152;59.674;16.838;2022-11-15T08:38:40;3.97;;;1.90;;
10216;SDS011;5152;59.674;16.838;2022-11-15T08:41:09;4.93;;;1.57;;
10216;SDS011;5152;59.674;16.838;2022-11-15T08:43:37;4.90;;;3.00;;
10216;SDS011;5152;59.674;16.838;2022-11-15T08:46:04;4.47;;;2.00;;
10216;SDS011;5152;59.674;16.838;2022-11-15T08:48:31;3.67;;;1.73;;
10216;SDS011;5152;59.674;16.838;2022-11-15T08:50:57;7.23;;;1.83;;
10216;SDS011;5152;59.674;16.838;2022-11-15T08:53:24;4.00;;;1.43;;
10216;SDS011;5152;59.674;16.838;2022-11-15T08:55:52;3.40;;;1.37;;
10216;SDS011;5152;59.674;16.838;2022-11-15T08:58:19;6.37;;;1.77;;
10216;SDS011;5152;59.674;16.838;2022-11-15T09:00:46;4.23;;;1.30;;
10216;SDS011;5152;59.674;16.838;2022-11-15T09:03:12;2.90;;;2.23;;
10216;SDS011;5152;59.674;16.838;2022-11-15T09:05:40;6.23;;;1.60;;
10216;SDS011;5152;59.674;16.838;2022-11-15T09:08:06;2.17;;;1.57;;
10216;SDS011;5152;59.674;16.838;2022-11-15T09:10:33;3.23;;;1.70;;
10216;SDS011;5152;59.674;16.838;2022-11-15T09:13:02;2.97;;;1.30;;
10216;SDS011;5152;59.674;16.838;2022-11-15T09:15:29;2.40;;;1.40;;
10216;SDS011;5152;59.674;16.838;2022-11-15T09:17:57;2.40;;;1.30;;
10216;SDS011;5152;59.674;16.838;2022-11-15T09:20:24;3.27;;;1.70;;
10216;SDS011;5152;59.674;16.838;2022-11-15T09:22:51;4.47;;;1.50;;
10216;SDS011;5152;59.674;16.838;2022-11-15T09:25:17;3.30;;;1.40;;
10216;SDS011;5152;59.674;16.838;2022-11-15T09:27:44;2.80;;;1.40;;
10216;SDS011;5152;59.674;16.838;2022-11-15T09:30:13;1.10;;;0.90;;
10216;SDS011;5152;59.674;16.838;2022-11-15T09:32:39;1.77;;;1.00;;
10216;SDS011;5152;59.674;16.838;2022-11-15T09:35:06;2.53;;;1.20;;
10216;SDS011;5152;59.674;16.838;2022-11-15T09:37:33;7.20;;;2.00;;
10216;SDS011;5152;59.674;16.838;2022-11-15T09:40:00;4.73;;;1.10;;
10216;SDS011;5152;59.674;16.838;2022-11-15T09:42:30;2.80;;;1.60;;
10216;SDS011;5152;59.674;16.838;2022-11-15T09:45:10;2.27;;;1.57;;
10216;SDS011;5152;59.674;16.838;2022-11-15T09:47:58;0.87;;;0.70;;
10216;SDS011;5152;59.674;16.838;2022-11-15T09:50:31;1.73;;;0.73;;
10216;SDS011;5152;59.674;16.838;2022-11-15T09:53:00;3.87;;;0.93;;
10216;SDS011;5152;59.674;16.838;2022-11-15T09:55:31;3.90;;;0.90;;
10216;SDS011;5152;59.674;16.838;2022-11-15T09:58:03;1.77;;;0.80;;
10216;SDS011;5152;59.674;16.838;2022-11-15T10:00:37;3.47;;;1.03;;
10216;SDS011;5152;59.674;16.838;2022-11-15T10:03:10;5.10;;;1.03;;
10216;SDS011;5152;59.674;16.838;2022-11-15T10:05:40;4.80;;;1.03;;
10216;SDS011;5152;59.674;16.838;2022-11-15T10:08:12;0.70;;;0.70;;
10216;SDS011;5152;59.674;16.838;2022-11-15T10:10:55;0.83;;;0.67;;
10216;SDS011;5152;59.674;16.838;2022-11-15T10:13:23;1.30;;;1.00;;
10216;SDS011;5152;59.674;16.838;2022-11-15T10:15:52;2.00;;;0.60;;
10216;SDS011;5152;59.674;16.838;2022-11-15T10:18:21;3.80;;;0.77;;
10216;SDS011;5152;59.674;16.838;2022-11-15T10:20:54;1.63;;;0.63;;
10216;SDS011;5152;59.674;16.838;2022-11-15T10:23:23;2.93;;;0.60;;
10216;SDS011;5152;59.674;16.838;2022-11-15T10:25:50;6.03;;;0.70;;
10216;SDS011;5152;59.674;16.838;2022-11-15T10:28:20;2.80;;;0.60;;
10216;SDS011;5152;59.674;16.838;2022-11-15T10:30:49;2.30;;;0.60;;
10216;SDS011;5152;59.674;16.838;2022-11-15T10:33:19;4.77;;;0.90;;
10216;SDS011;5152;59.674;16.838;2022-11-15T10:35:58;2.17;;;0.90;;
10216;SDS011;5152;59.674;16.838;2022-11-15T10:38:49;2.93;;;0.80;;
10216;SDS011;5152;59.674;16.838;2022-11-15T10:41:19;2.37;;;0.67;;
10216;SDS011;5152;59.674;16.838;2022-11-15T10:44:00;1.93;;;0.70;;
10216;SDS011;5152;59.674;16.838;2022-11-15T10:46:29;1.30;;;0.53;;
10216;SDS011;5152;59.674;16.838;2022-11-15T10:49:02;3.87;;;1.30;;
10216;SDS011;5152;59.674;16.838;2022-11-15T10:51:40;3.87;;;0.80;;
10216;SDS011;5152;59.674;16.838;2022-11-15T10:54:10;1.13;;;0.73;;
10216;SDS011;5152;59.674;16.838;2022-11-15T10:56:37;1.67;;;0.53;;
10216;SDS011;5152;59.674;16.838;2022-11-15T10:59:07;3.90;;;0.80;;
10216;SDS011;5152;59.674;16.838;2022-11-15T11:01:45;1.83;;;0.50;;
10216;SDS011;5152;59.674;16.838;2022-11-15T11:04:14;3.07;;;1.70;;
10216;SDS011;5152;59.674;16.838;2022-11-15T11:06:47;2.40;;;1.00;;
10216;SDS011;5152;59.674;16.838;2022-11-15T11:09:22;5.77;;;4.40;;
10216;SDS011;5152;59.674;16.838;2022-11-15T11:11:54;1.10;;;0.73;;
10216;SDS011;5152;59.674;16.838;2022-11-15T11:14:21;1.23;;;0.80;;
10216;SDS011;5152;59.674;16.838;2022-11-15T11:16:51;1.20;;;0.50;;
10216;SDS011;5152;59.674;16.838;2022-11-15T11:22:20;1.40;;;0.80;;
10216;SDS011;5152;59.674;16.838;2022-11-15T11:24:52;1.13;;;0.70;;
10216;SDS011;5152;59.674;16.838;2022-11-15T11:27:27;1.47;;;0.80;;
10216;SDS011;5152;59.674;16.838;2022-11-15T11:30:05;2.87;;;0.70;;
10216;SDS011;5152;59.674;16.838;2022-11-15T11:32:40;1.20;;;0.60;;
10216;SDS011;5152;59.674;16.838;2022-11-15T11:35:22;1.30;;;0.90;;
10216;SDS011;5152;59.674;16.838;2022-11-15T11:37:51;4.33;;;1.07;;
10216;SDS011;5152;59.674;16.838;2022-11-15T11:40:28;1.10;;;0.80;;
10216;SDS011;5152;59.674;16.838;2022-11-15T11:42:58;2.33;;;0.53;;
10216;SDS011;5152;59.674;16.838;2022-11-15T11:45:37;1.10;;;0.60;;
10216;SDS011;5152;59.674;16.838;2022-11-15T11:48:19;3.93;;;0.80;;
10216;SDS011;5152;59.674;16.838;2022-11-15T11:50:51;2.70;;;0.80;;
10216;SDS011;5152;59.674;16.838;2022-11-15T11:53:21;3.23;;;0.87;;
10216;SDS011;5152;59.674;16.838;2022-11-15T11:55:52;3.07;;;1.20;;
10216;SDS011;5152;59.674;16.838;2022-11-15T11:58:21;1.53;;;0.70;;
10216;SDS011;5152;59.674;16.838;2022-11-15T12:00:52;2.30;;;0.80;;
10216;SDS011;5152;59.674;16.838;2022-11-15T12:03:22;0.97;;;0.70;;
10216;SDS011;5152;59.674;16.838;2022-11-15T12:05:54;1.70;;;0.73;;
10216;SDS011;5152;59.674;16.838;2022-11-15T12:08:23;2.73;;;0.70;;
10216;SDS011;5152;59.674;16.838;2022-11-15T12:10:58;2.40;;;0.83;;
10216;SDS011;5152;59.674;16.838;2022-11-15T12:13:34;1.83;;;0.63;;
10216;SDS011;5152;59.674;16.838;2022-11-15T12:16:03;0.80;;;0.60;;
10216;SDS011;5152;59.674;16.838;2022-11-15T12:18:33;1.23;;;0.70;;
10216;SDS011;5152;59.674;16.838;2022-11-15T12:21:03;1.10;;;0.60;;
10216;SDS011;5152;59.674;16.838;2022-11-15T12:23:34;0.53;;;0.53;;
10216;SDS011;5152;59.674;16.838;2022-11-15T12:26:05;3.93;;;0.90;;
10216;SDS011;5152;59.674;16.838;2022-11-15T12:28:34;1.03;;;0.80;;
10216;SDS011;5152;59.674;16.838;2022-11-15T12:31:04;2.87;;;0.87;;
10216;SDS011;5152;59.674;16.838;2022-11-15T12:33:34;2.27;;;1.30;;
10216;SDS011;5152;59.674;16.838;2022-11-15T12:36:04;0.80;;;0.60;;
10216;SDS011;5152;59.674;16.838;2022-11-15T12:41:19;1.07;;;0.50;;
10216;SDS011;5152;59.674;16.838;2022-11-15T12:43:46;3.17;;;0.90;;
10216;SDS011;5152;59.674;16.838;2022-11-15T12:46:19;2.60;;;0.80;;
10216;SDS011;5152;59.674;16.838;2022-11-15T12:48:49;4.17;;;1.10;;
10216;SDS011;5152;59.674;16.838;2022-11-15T12:51:22;3.17;;;0.90;;
10216;SDS011;5152;59.674;16.838;2022-11-15T12:57:27;0.87;;;0.60;;
10216;SDS011;5152;59.674;16.838;2022-11-15T12:59:56;0.50;;;0.50;;
10216;SDS011;5152;59.674;16.838;2022-11-15T13:02:29;3.27;;;0.90;;
10216;SDS011;5152;59.674;16.838;2022-11-15T13:07:57;2.27;;;0.60;;
10216;SDS011;5152;59.674;16.838;2022-11-15T13:10:33;2.67;;;1.17;;
10216;SDS011;5152;59.674;16.838;2022-11-15T13:13:00;1.70;;;0.77;;
10216;SDS011;5152;59.674;16.838;2022-11-15T13:15:35;0.87;;;0.37;;
10216;SDS011;5152;59.674;16.838;2022-11-15T13:18:24;0.60;;;0.60;;
10216;SDS011;5152;59.674;16.838;2022-11-15T13:20:59;1.90;;;0.70;;
10216;SDS011;5152;59.674;16.838;2022-11-15T13:23:28;1.90;;;0.43;;
10216;SDS011;5152;59.674;16.838;2022-11-15T13:26:02;2.47;;;0.80;;
10216;SDS011;5152;59.674;16.838;2022-11-15T13:28:38;2.97;;;0.73;;
10216;SDS011;5152;59.674;16.838;2022-11-15T13:31:29;3.07;;;0.73;;
10216;SDS011;5152;59.674;16.838;2022-11-15T13:34:00;1.97;;;0.93;;
10216;SDS011;5152;59.674;16.838;2022-11-15T13:36:29;3.10;;;0.87;;
10216;SDS011;5152;59.674;16.838;2022-11-15T13:39:00;1.03;;;0.40;;
10216;SDS011;5152;59.674;16.838;2022-11-15T13:41:29;0.60;;;0.60;;
10216;SDS011;5152;59.674;16.838;2022-11-15T13:43:56;1.73;;;0.57;;
10216;SDS011;5152;59.674;16.838;2022-11-15T13:46:24;2.93;;;0.83;;
10216;SDS011;5152;59.674;16.838;2022-11-15T13:48:53;0.40;;;0.40;;
10216;SDS011;5152;59.674;16.838;2022-11-15T13:51:23;0.87;;;0.60;;
10216;SDS011;5152;59.674;16.838;2022-11-15T13:53:53;1.57;;;0.60;;
10216;SDS011;5152;59.674;16.838;2022-11-15T13:56:22;3.20;;;0.67;;
10216;SDS011;5152;59.674;16.838;2022-11-15T13:58:52;2.77;;;0.97;;
10216;SDS011;5152;59.674;16.838;2022-11-15T14:01:20;1.37;;;0.53;;
10216;SDS011;5152;59.674;16.838;2022-11-15T14:03:49;5.37;;;0.90;;
10216;SDS011;5152;59.674;16.838;2022-11-15T14:06:17;0.63;;;0.43;;
10216;SDS011;5152;59.674;16.838;2022-11-15T14:08:57;2.87;;;0.47;;
10216;SDS011;5152;59.674;16.838;2022-11-15T14:11:27;0.70;;;0.50;;
10216;SDS011;5152;59.674;16.838;2022-11-15T14:16:41;0.40;;;0.30;;
10216;SDS011;5152;59.674;16.838;2022-11-15T14:19:09;5.77;;;0.70;;
10216;SDS011;5152;59.674;16.838;2022-11-15T14:21:37;0.20;;;0.20;;
10216;SDS011;5152;59.674;16.838;2022-11-15T14:24:41;2.17;;;0.60;;
10216;SDS011;5152;59.674;16.838;2022-11-15T14:27:18;0.80;;;0.57;;
10216;SDS011;5152;59.674;16.838;2022-11-15T14:29:46;0.80;;;0.30;;
10216;SDS011;5152;59.674;16.838;2022-11-15T14:32:14;0.40;;;0.40;;
10216;SDS011;5152;59.674;16.838;2022-11-15T14:34:42;0.80;;;0.40;;
10216;SDS011;5152;59.674;16.838;2022-11-15T14:37:12;1.00;;;0.37;;
10216;SDS011;5152;59.674;16.838;2022-11-15T14:39:45;0.87;;;0.50;;
10216;SDS011;5152;59.674;16.838;2022-11-15T14:42:12;2.00;;;0.50;;
10216;SDS011;5152;59.674;16.838;2022-11-15T14:44:40;3.03;;;0.37;;
10216;SDS011;5152;59.674;16.838;2022-11-15T14:47:07;0.40;;;0.40;;
10216;SDS011;5152;59.674;16.838;2022-11-15T14:49:33;9.13;;;0.50;;
10216;SDS011;5152;59.674;16.838;2022-11-15T14:52:00;0.40;;;0.40;;
10216;SDS011;5152;59.674;16.838;2022-11-15T14:54:27;0.47;;;0.40;;
10216;SDS011;5152;59.674;16.838;2022-11-15T14:56:53;1.63;;;0.40;;
10216;SDS011;5152;59.674;16.838;2022-11-15T14:59:20;0.33;;;0.33;;
10216;SDS011;5152;59.674;16.838;2022-11-15T15:01:48;0.47;;;0.27;;
10216;SDS011;5152;59.674;16.838;2022-11-15T15:04:15;0.67;;;0.40;;
10216;SDS011;5152;59.674;16.838;2022-11-15T15:06:43;1.63;;;0.53;;
10216;SDS011;5152;59.674;16.838;2022-11-15T15:09:09;1.30;;;0.53;;
10216;SDS011;5152;59.674;16.838;2022-11-15T15:11:36;0.67;;;0.40;;
10216;SDS011;5152;59.674;16.838;2022-11-15T15:14:04;1.20;;;0.50;;
10216;SDS011;5152;59.674;16.838;2022-11-15T15:16:31;3.43;;;0.70;;
10216;SDS011;5152;59.674;16.838;2022-11-15T15:18:59;2.90;;;0.90;;